Search for airport 
image banner adimage banner adimage banner ad
image banner ad

80PA - Pamco Pa

Located in Moosic, United States

ICAO - 80PA, IATA -

Data provided by Airmate  

General information

Coordinates: N41°22'8" W75°40'39"
Elevation is 990 feet MSL.
Magnetic variation is -12° East
View others Airports in Pennsylvania

Operational data

Special qualification required
Current time UTC:
Current local time:
Weather at : KAVP - Wilkes-Barre/Scranton Intl ( 5 km )
METAR: KAVP 152154Z 36016G22KT 10SM FEW041 OVC070 22/12 A2982 RMK AO2 SLP091 T02170117
TAF: KAVP 151744Z 1518/1618 31010G18KT P6SM -SHRA SCT028 BKN040 TEMPO 1518/1520 3SM -RA SCT025 BKN030 FM152200 33009KT P6SM SCT040 BKN070 FM160100 33006KT P6SM SCT250 FM161600 33012KT P6SM FEW250
View NOTAMs / SUP AIP / TFR affecting this airport [VIEW]
Communications frequencies: [VIEW]

Runways:

Airport contact information

Address: Moosic United States

Satellite view of 80PA